默认 日期 大小 文件数 浏览量 最新下载 xml
super 6磁力链接相关资源由用户搜索指令自动获取,结果来源于网络,本站不存储任何资料,亦不承担任何责任,请于24小时内删除,搜索到3157个磁力,用时25ms。
    ... 1 - sc4.wmv": 213368409}, "Super Buns 2": {"Super Buns 2 CD1.avi ... , "Super Buns 5 CD2.avi": 731136000}, "Super Buns 6": {"Super Buns 6 CD1.avi": 731877376, "Super ... Buns 6 CD2.avi ...
创建时间: 2022-12-28 17:20:35 大小:7.88 GB 文件数量:14 热度:2 最近下载:2025-03-01 19:51:04
    {"Crack": {"OnlineTV.exe": 1995776, "ArmAccess.dll": 53248}, "onlinetv66.exe": 2216960}
创建时间: 2022-12-29 20:43:53 大小:4.07 MB 文件数量:3 热度:2 最近下载:2025-01-18 15:30:05
    {"Super Soakers 6 [DVDRIP][Hardcore][www.zorraspilladas.com][www.sexotorrent.com].avi": 733319168}
创建时间: 2023-01-05 19:47:38 大小:699.35 MB 文件数量:1 热度:2 最近下载:2025-01-11 17:23:06
    ... ": 118142, "windows7_preview_1_0.jpg": 134152, "6 New Super Themes for Win7 x86x64.rar ...
创建时间: 2023-01-05 21:31:03 大小:2.16 GB 文件数量:9 热度:4 最近下载:2025-01-27 12:26:02
    {"okita_anri.jpg": 4965, "SUPER爆乳BODYコス ... プレイヤー6変化_沖田 ...
创建时间: 2023-01-15 18:04:53 大小:1.48 GB 文件数量:5 热度:16 最近下载:2025-08-01 22:38:08
    {"Torrent_downloaded_from_Demonoid.is_.txt": 58, "[TGx]Downloaded from torrentgalaxy.to .txt": 715, "Super Squats - How to Gain 30 Pounds of Muscle in 6 Weeks.pdf": 59317534}
创建时间: 2023-01-26 18:58:00 大小:56.57 MB 文件数量:3 热度:9 最近下载:2025-09-19 02:12:04
    {"tk-dragon-ball-super-020-lat-jap-subs-1080p-bb-05-ace-6_meta.xml": 722, "[TK] Dragon ball Super - 020 [Lat-Jap+Subs] [1080p] [BB05ACE6].mkv": 1009803196, "tk-dragon-ball-super-020-lat-jap-subs-1080p-bb-05-ace-6_meta.sqlite": 20480}
创建时间: 2023-01-27 21:57:05 大小:963.04 MB 文件数量:3 热度:16 最近下载:2025-09-12 21:54:02
    ... - M2Tv.mkv": 535710232, "DID Super Moms (2015) Episode 2 - Hindi ... - M2Tv.mkv": 263796739, "DID Super Moms (2015) Episode 3 - Hindi ... - M2Tv.mkv": 517975873, "DID Super Moms (2015) Episode 4 - ... 538075383, "DID Super Moms (2015) Episode 6 - Hindi 720p WEBHDRip ...
创建时间: 2023-01-27 23:32:59 大小:2.73 GB 文件数量:10 热度:3 最近下载:2025-05-29 20:22:02
    {"__ia_thumb.jpg": 7040, "[T-N]Super_Hero_Taisen_SD[5FBF74F6]BluV2.mp4": 818869928, "t-n-super-hero-taisen-sd-5-fbf-74-f-6-blu-v-2_meta.xml": 853, "t-n-super-hero-taisen-sd-5-fbf-74-f-6-blu-v-2_meta.sqlite": 11264}
创建时间: 2023-01-31 23:32:09 大小:780.95 MB 文件数量:4 热度:14 最近下载:2025-09-18 23:22:06
    {"Crack": {"[INFO].txt": 6099, "SuperHideIP.exe": 3804912}, "Readme.txt": 190, "SuperHideIP-3.0.6.2.Setup.exe": 2477404}
创建时间: 2023-02-02 05:29:19 大小:6 MB 文件数量:4 热度:2 最近下载:2025-01-22 13:37:03
    {"Crack": {"SuperHideIP.exe": 3804912}, "ReadMe.txt": 2142, "SHI3066.JPG": 27100, "SuperHideIP-3.0.6.6.Setup.exe": 2477618}
创建时间: 2023-02-02 05:30:17 大小:6.02 MB 文件数量:4 热度:2 最近下载:2025-01-15 18:56:09
    {"Readme.txt": 57, "Super Hide IP_Patch.exe": 1414144, "SuperHideIP-3.6.1.6.Setup.exe": 2479594}
创建时间: 2023-02-02 05:39:34 大小:3.71 MB 文件数量:3 热度:2 最近下载:2025-02-06 05:16:03
    {"Crack": {"IDMan.exe": 5902600, "RegKey.reg": 396, "RegKey_x64.reg": 420}, "Readme.txt": 429, "idman641build7.exe": 11307632, "0. Websites you may like": {"1. Get Free Premium Accounts Daily On Our Discord Server!.txt": 1347, "3. FreeCoursesOnline.me ...
创建时间: 2023-03-03 19:55:58 大小:16.42 MB 文件数量:9 热度:3 最近下载:2025-02-21 12:53:02
    {"Internet Download Manager (IDM) 6.41 Build 7 Multilingual + SUPER CLEAN Crack.exe": 18992956, "Internet Download Manager (IDM) 6.41 Build 7 Multilingual + SUPER CLEAN Crack.nfo": 764}
创建时间: 2023-03-03 23:44:00 大小:18.11 MB 文件数量:2 热度:2 最近下载:2025-01-15 17:17:07
    {"Crack + Keygen.exe": 3619441, "Torrent_downloaded_from_Thepiratebay.org_.txt": 1024, "Internet Download Manager (IDM) 6.41 Build 7 Multilingual + SUPER CLEAN (Crack + Keygen) (2023) (TPB).exe": 16859307}
创建时间: 2023-03-05 21:06:19 大小:19.53 MB 文件数量:3 热度:12 最近下载:2025-04-08 03:02:03
    {"__ia_thumb.jpg": 9664, "B3313 v0.6.9.7z": 8926341, "B3313 V.0.6.8.7z": 17260495, "IMG_20210912_125700.jpg": 81707, "IMG_20210912_125700_thumb.jpg": 9106, "Super-mario-64-b-3313-v-0.6.8_meta.xml": 892, "Super-mario-64-b-3313-v-0.6.8_meta.sqlite": 28672}
创建时间: 2023-03-16 17:54:29 大小:25.1 MB 文件数量:7 热度:6 最近下载:2025-03-29 04:38:02
    {"Internet Download Manager (IDM) 6.41 Build 5 Multilingual SUPER CLEAN Crack": {"Crack.rar": 1957335, "idman.exe": 44503880, "Readme.txt": 478}}
创建时间: 2023-03-16 20:29:40 大小:44.31 MB 文件数量:3 热度:2 最近下载:2025-01-13 09:50:05
    {"Crack": {"IDMan.exe": 5921536, "RegKey.reg": 396, "RegKey_x64.reg": 420}, "Readme.txt": 357, "idman641build8.exe": 15055423}
创建时间: 2023-03-22 20:01:41 大小:20.01 MB 文件数量:5 热度:2 最近下载:2025-01-19 07:31:01
    {"Crack": {"IDMan.exe": 5921536, "RegKey.reg": 396, "RegKey_x64.reg": 420}, "Readme.txt": 419, "idman641build8.exe": 11315104, "0. Websites you may like": {"1. Get Free Premium Accounts Daily On Our Discord Server!.txt": 1347, "3. FreeCoursesOnline.me ...
创建时间: 2023-03-22 22:49:56 大小:16.44 MB 文件数量:9 热度:4 最近下载:2025-01-28 06:07:02
    {"Crack": {"IDMan.exe": 5922560, "RegKey.reg": 396, "RegKey_x64.reg": 420}, "Readme.txt": 446, "idman641build10.exe": 11314368, "0. Websites you may like": {"1. Get Free Premium Accounts Daily On Our Discord Server!.txt": 1347, "3. FreeCoursesOnline.me ...
创建时间: 2023-03-23 16:19:10 大小:16.44 MB 文件数量:9 热度:3 最近下载:2025-01-18 07:24:03